sensor_id;sensor_type;location;lat;lon;timestamp;P1;durP1;ratioP1;P2;durP2;ratioP2
27670;SDS011;15077;49.704;9.908;2023-07-28T00:02:07;1.98;;;1.58;;
27670;SDS011;15077;49.704;9.908;2023-07-28T00:04:34;2.60;;;1.80;;
27670;SDS011;15077;49.704;9.908;2023-07-28T00:07:01;3.05;;;2.28;;
27670;SDS011;15077;49.704;9.908;2023-07-28T00:09:30;3.65;;;1.98;;
27670;SDS011;15077;49.704;9.908;2023-07-28T00:11:57;2.78;;;2.00;;
27670;SDS011;15077;49.704;9.908;2023-07-28T00:14:24;2.75;;;2.05;;
27670;SDS011;15077;49.704;9.908;2023-07-28T00:16:52;3.50;;;2.08;;
27670;SDS011;15077;49.704;9.908;2023-07-28T00:19:22;2.80;;;1.92;;
27670;SDS011;15077;49.704;9.908;2023-07-28T00:21:48;3.42;;;2.20;;
27670;SDS011;15077;49.704;9.908;2023-07-28T00:24:15;3.15;;;2.40;;
27670;SDS011;15077;49.704;9.908;2023-07-28T00:26:42;3.13;;;1.95;;
27670;SDS011;15077;49.704;9.908;2023-07-28T00:29:08;2.90;;;1.95;;
27670;SDS011;15077;49.704;9.908;2023-07-28T00:31:34;2.63;;;1.80;;
27670;SDS011;15077;49.704;9.908;2023-07-28T00:34:01;2.95;;;2.13;;
27670;SDS011;15077;49.704;9.908;2023-07-28T00:36:28;2.65;;;1.80;;
27670;SDS011;15077;49.704;9.908;2023-07-28T00:38:55;5.47;;;2.05;;
27670;SDS011;15077;49.704;9.908;2023-07-28T00:41:21;2.83;;;1.80;;
27670;SDS011;15077;49.704;9.908;2023-07-28T00:43:51;3.45;;;1.65;;
27670;SDS011;15077;49.704;9.908;2023-07-28T00:46:18;2.83;;;1.80;;
27670;SDS011;15077;49.704;9.908;2023-07-28T00:48:44;3.17;;;1.75;;
27670;SDS011;15077;49.704;9.908;2023-07-28T00:51:10;3.00;;;2.05;;
27670;SDS011;15077;49.704;9.908;2023-07-28T00:53:37;3.80;;;2.60;;
27670;SDS011;15077;49.704;9.908;2023-07-28T00:56:04;3.03;;;1.92;;
27670;SDS011;15077;49.704;9.908;2023-07-28T00:58:30;3.20;;;2.10;;
27670;SDS011;15077;49.704;9.908;2023-07-28T01:00:57;2.83;;;1.73;;
27670;SDS011;15077;49.704;9.908;2023-07-28T01:03:25;3.55;;;1.83;;
27670;SDS011;15077;49.704;9.908;2023-07-28T01:11:34;2.70;;;1.73;;
27670;SDS011;15077;49.704;9.908;2023-07-28T01:14:00;3.80;;;1.80;;
27670;SDS011;15077;49.704;9.908;2023-07-28T01:16:26;2.72;;;1.55;;
27670;SDS011;15077;49.704;9.908;2023-07-28T01:18:52;3.17;;;1.80;;
27670;SDS011;15077;49.704;9.908;2023-07-28T01:21:22;3.50;;;2.33;;
27670;SDS011;15077;49.704;9.908;2023-07-28T01:24:05;3.50;;;2.03;;
27670;SDS011;15077;49.704;9.908;2023-07-28T01:27:17;2.85;;;1.85;;
27670;SDS011;15077;49.704;9.908;2023-07-28T01:29:44;2.92;;;1.90;;
27670;SDS011;15077;49.704;9.908;2023-07-28T01:32:10;3.45;;;1.80;;
27670;SDS011;15077;49.704;9.908;2023-07-28T01:34:37;2.90;;;2.08;;
27670;SDS011;15077;49.704;9.908;2023-07-28T01:37:03;2.80;;;1.80;;
27670;SDS011;15077;49.704;9.908;2023-07-28T01:39:29;3.25;;;1.60;;
27670;SDS011;15077;49.704;9.908;2023-07-28T01:41:54;3.95;;;1.88;;
27670;SDS011;15077;49.704;9.908;2023-07-28T01:44:20;2.75;;;1.60;;
27670;SDS011;15077;49.704;9.908;2023-07-28T01:46:46;2.25;;;1.60;;
27670;SDS011;15077;49.704;9.908;2023-07-28T01:49:12;2.60;;;1.52;;
27670;SDS011;15077;49.704;9.908;2023-07-28T01:51:37;3.47;;;1.77;;
27670;SDS011;15077;49.704;9.908;2023-07-28T01:54:03;2.60;;;1.80;;
27670;SDS011;15077;49.704;9.908;2023-07-28T01:56:29;1.75;;;1.35;;
27670;SDS011;15077;49.704;9.908;2023-07-28T01:58:55;2.33;;;1.60;;
27670;SDS011;15077;49.704;9.908;2023-07-28T02:01:23;2.10;;;1.30;;
27670;SDS011;15077;49.704;9.908;2023-07-28T02:03:49;2.28;;;1.60;;
27670;SDS011;15077;49.704;9.908;2023-07-28T02:06:14;2.72;;;1.40;;
27670;SDS011;15077;49.704;9.908;2023-07-28T02:08:40;2.85;;;1.88;;
27670;SDS011;15077;49.704;9.908;2023-07-28T02:11:06;1.98;;;1.25;;
27670;SDS011;15077;49.704;9.908;2023-07-28T02:13:31;1.90;;;1.40;;
27670;SDS011;15077;49.704;9.908;2023-07-28T02:15:57;2.20;;;1.58;;
27670;SDS011;15077;49.704;9.908;2023-07-28T02:18:23;2.33;;;1.63;;
27670;SDS011;15077;49.704;9.908;2023-07-28T02:20:49;2.58;;;1.55;;
27670;SDS011;15077;49.704;9.908;2023-07-28T02:23:15;3.50;;;1.30;;
27670;SDS011;15077;49.704;9.908;2023-07-28T02:25:41;3.83;;;1.70;;
27670;SDS011;15077;49.704;9.908;2023-07-28T02:28:08;2.40;;;1.50;;
27670;SDS011;15077;49.704;9.908;2023-07-28T02:30:35;2.20;;;1.33;;
27670;SDS011;15077;49.704;9.908;2023-07-28T02:33:01;3.22;;;1.45;;
27670;SDS011;15077;49.704;9.908;2023-07-28T02:35:27;1.73;;;1.20;;
27670;SDS011;15077;49.704;9.908;2023-07-28T02:37:53;3.78;;;1.60;;
27670;SDS011;15077;49.704;9.908;2023-07-28T02:40:19;3.50;;;1.50;;
27670;SDS011;15077;49.704;9.908;2023-07-28T02:42:45;2.05;;;1.40;;
27670;SDS011;15077;49.704;9.908;2023-07-28T02:45:11;1.95;;;1.13;;
27670;SDS011;15077;49.704;9.908;2023-07-28T02:47:37;2.13;;;1.52;;
27670;SDS011;15077;49.704;9.908;2023-07-28T02:50:03;2.15;;;1.33;;
27670;SDS011;15077;49.704;9.908;2023-07-28T02:52:29;1.83;;;1.20;;
27670;SDS011;15077;49.704;9.908;2023-07-28T02:54:55;3.20;;;1.40;;
27670;SDS011;15077;49.704;9.908;2023-07-28T02:57:21;2.25;;;1.50;;
27670;SDS011;15077;49.704;9.908;2023-07-28T02:59:46;1.98;;;1.40;;
27670;SDS011;15077;49.704;9.908;2023-07-28T03:02:12;1.70;;;1.05;;
27670;SDS011;15077;49.704;9.908;2023-07-28T03:04:38;2.40;;;1.50;;
27670;SDS011;15077;49.704;9.908;2023-07-28T03:07:04;2.35;;;1.20;;
27670;SDS011;15077;49.704;9.908;2023-07-28T03:09:30;3.78;;;1.40;;
27670;SDS011;15077;49.704;9.908;2023-07-28T03:11:56;4.63;;;1.15;;
27670;SDS011;15077;49.704;9.908;2023-07-28T03:14:22;1.40;;;1.08;;
27670;SDS011;15077;49.704;9.908;2023-07-28T03:16:48;1.65;;;0.70;;
27670;SDS011;15077;49.704;9.908;2023-07-28T03:19:13;1.92;;;1.08;;
27670;SDS011;15077;49.704;9.908;2023-07-28T03:21:39;1.98;;;0.73;;
27670;SDS011;15077;49.704;9.908;2023-07-28T03:24:05;1.98;;;0.70;;
27670;SDS011;15077;49.704;9.908;2023-07-28T03:26:33;2.58;;;0.63;;
27670;SDS011;15077;49.704;9.908;2023-07-28T03:28:59;2.60;;;0.77;;
27670;SDS011;15077;49.704;9.908;2023-07-28T03:31:25;0.95;;;0.65;;
27670;SDS011;15077;49.704;9.908;2023-07-28T03:33:51;1.42;;;0.65;;
27670;SDS011;15077;49.704;9.908;2023-07-28T03:36:16;1.58;;;0.55;;
27670;SDS011;15077;49.704;9.908;2023-07-28T03:38:44;1.17;;;0.70;;
27670;SDS011;15077;49.704;9.908;2023-07-28T03:41:10;0.98;;;0.68;;
27670;SDS011;15077;49.704;9.908;2023-07-28T03:43:35;1.55;;;0.55;;
27670;SDS011;15077;49.704;9.908;2023-07-28T03:46:01;1.30;;;0.50;;
27670;SDS011;15077;49.704;9.908;2023-07-28T03:48:28;2.08;;;0.90;;
27670;SDS011;15077;49.704;9.908;2023-07-28T03:50:54;1.35;;;0.85;;
27670;SDS011;15077;49.704;9.908;2023-07-28T03:53:20;1.25;;;0.50;;
27670;SDS011;15077;49.704;9.908;2023-07-28T03:55:48;1.30;;;0.70;;
27670;SDS011;15077;49.704;9.908;2023-07-28T03:58:14;1.33;;;0.80;;
27670;SDS011;15077;49.704;9.908;2023-07-28T04:00:40;1.48;;;0.73;;
27670;SDS011;15077;49.704;9.908;2023-07-28T04:03:06;1.67;;;0.70;;
27670;SDS011;15077;49.704;9.908;2023-07-28T04:05:31;1.55;;;0.82;;
27670;SDS011;15077;49.704;9.908;2023-07-28T04:07:57;1.35;;;0.70;;
27670;SDS011;15077;49.704;9.908;2023-07-28T04:10:23;1.08;;;0.70;;
27670;SDS011;15077;49.704;9.908;2023-07-28T04:12:48;2.05;;;0.95;;
27670;SDS011;15077;49.704;9.908;2023-07-28T04:15:14;1.67;;;0.80;;
27670;SDS011;15077;49.704;9.908;2023-07-28T04:17:40;0.90;;;0.80;;
27670;SDS011;15077;49.704;9.908;2023-07-28T04:20:06;0.98;;;0.57;;
27670;SDS011;15077;49.704;9.908;2023-07-28T04:22:36;1.60;;;0.70;;
27670;SDS011;15077;49.704;9.908;2023-07-28T04:25:02;1.35;;;0.80;;
27670;SDS011;15077;49.704;9.908;2023-07-28T04:27:29;1.77;;;0.77;;
27670;SDS011;15077;49.704;9.908;2023-07-28T04:29:55;1.15;;;0.80;;
27670;SDS011;15077;49.704;9.908;2023-07-28T04:32:20;1.48;;;0.90;;
27670;SDS011;15077;49.704;9.908;2023-07-28T04:34:46;1.30;;;0.60;;
27670;SDS011;15077;49.704;9.908;2023-07-28T04:37:12;1.10;;;0.70;;
27670;SDS011;15077;49.704;9.908;2023-07-28T04:39:37;1.45;;;0.75;;
27670;SDS011;15077;49.704;9.908;2023-07-28T04:42:03;1.50;;;0.93;;
27670;SDS011;15077;49.704;9.908;2023-07-28T04:44:29;1.30;;;0.77;;
27670;SDS011;15077;49.704;9.908;2023-07-28T04:46:55;2.15;;;0.82;;
27670;SDS011;15077;49.704;9.908;2023-07-28T04:49:20;1.67;;;0.88;;
27670;SDS011;15077;49.704;9.908;2023-07-28T04:51:46;1.63;;;0.90;;
27670;SDS011;15077;49.704;9.908;2023-07-28T04:54:12;1.40;;;0.70;;
27670;SDS011;15077;49.704;9.908;2023-07-28T04:56:38;1.70;;;1.15;;
27670;SDS011;15077;49.704;9.908;2023-07-28T04:59:04;1.08;;;0.70;;
27670;SDS011;15077;49.704;9.908;2023-07-28T05:01:31;1.30;;;0.88;;
27670;SDS011;15077;49.704;9.908;2023-07-28T05:03:58;1.42;;;1.00;;
27670;SDS011;15077;49.704;9.908;2023-07-28T05:06:24;2.28;;;1.20;;
27670;SDS011;15077;49.704;9.908;2023-07-28T05:08:49;2.25;;;1.45;;
27670;SDS011;15077;49.704;9.908;2023-07-28T05:11:18;3.08;;;1.13;;
27670;SDS011;15077;49.704;9.908;2023-07-28T05:13:44;1.83;;;0.90;;
27670;SDS011;15077;49.704;9.908;2023-07-28T05:16:10;3.05;;;1.10;;
27670;SDS011;15077;49.704;9.908;2023-07-28T05:18:35;2.92;;;1.48;;
27670;SDS011;15077;49.704;9.908;2023-07-28T05:21:02;2.55;;;1.38;;
27670;SDS011;15077;49.704;9.908;2023-07-28T05:23:28;1.85;;;1.50;;
27670;SDS011;15077;49.704;9.908;2023-07-28T05:25:53;2.22;;;1.30;;
27670;SDS011;15077;49.704;9.908;2023-07-28T05:28:19;2.38;;;1.30;;
27670;SDS011;15077;49.704;9.908;2023-07-28T05:30:45;2.10;;;1.35;;
27670;SDS011;15077;49.704;9.908;2023-07-28T05:33:10;1.70;;;1.30;;
27670;SDS011;15077;49.704;9.908;2023-07-28T05:35:36;1.90;;;1.33;;
27670;SDS011;15077;49.704;9.908;2023-07-28T05:38:05;1.70;;;1.35;;
27670;SDS011;15077;49.704;9.908;2023-07-28T05:40:31;1.77;;;1.40;;
27670;SDS011;15077;49.704;9.908;2023-07-28T05:42:56;2.55;;;1.65;;
27670;SDS011;15077;49.704;9.908;2023-07-28T05:45:22;1.70;;;1.38;;
27670;SDS011;15077;49.704;9.908;2023-07-28T05:47:48;2.28;;;1.73;;
27670;SDS011;15077;49.704;9.908;2023-07-28T05:50:14;2.88;;;1.40;;
27670;SDS011;15077;49.704;9.908;2023-07-28T05:52:40;3.03;;;1.70;;
27670;SDS011;15077;49.704;9.908;2023-07-28T05:55:05;1.88;;;1.30;;
27670;SDS011;15077;49.704;9.908;2023-07-28T05:57:32;2.60;;;1.58;;
27670;SDS011;15077;49.704;9.908;2023-07-28T05:59:57;2.35;;;1.67;;
27670;SDS011;15077;49.704;9.908;2023-07-28T06:02:23;2.03;;;1.63;;
27670;SDS011;15077;49.704;9.908;2023-07-28T06:04:49;2.35;;;1.60;;
27670;SDS011;15077;49.704;9.908;2023-07-28T06:07:15;2.22;;;1.45;;
27670;SDS011;15077;49.704;9.908;2023-07-28T06:09:40;3.03;;;1.60;;
27670;SDS011;15077;49.704;9.908;2023-07-28T06:12:09;2.65;;;1.85;;
27670;SDS011;15077;49.704;9.908;2023-07-28T06:14:35;1.90;;;1.35;;
27670;SDS011;15077;49.704;9.908;2023-07-28T06:17:01;2.38;;;1.40;;
27670;SDS011;15077;49.704;9.908;2023-07-28T06:19:26;1.55;;;1.17;;
27670;SDS011;15077;49.704;9.908;2023-07-28T06:21:52;1.98;;;1.38;;
27670;SDS011;15077;49.704;9.908;2023-07-28T06:24:18;12.05;;;1.95;;
27670;SDS011;15077;49.704;9.908;2023-07-28T06:26:45;2.78;;;1.60;;
27670;SDS011;15077;49.704;9.908;2023-07-28T06:29:11;2.35;;;1.30;;
27670;SDS011;15077;49.704;9.908;2023-07-28T06:31:36;1.77;;;1.17;;
27670;SDS011;15077;49.704;9.908;2023-07-28T06:34:02;3.95;;;1.33;;
27670;SDS011;15077;49.704;9.908;2023-07-28T06:36:28;1.30;;;1.00;;
27670;SDS011;15077;49.704;9.908;2023-07-28T06:38:54;2.13;;;1.33;;
27670;SDS011;15077;49.704;9.908;2023-07-28T06:41:20;1.58;;;1.17;;
27670;SDS011;15077;49.704;9.908;2023-07-28T06:43:47;1.40;;;1.02;;
27670;SDS011;15077;49.704;9.908;2023-07-28T06:46:15;2.70;;;1.20;;
27670;SDS011;15077;49.704;9.908;2023-07-28T06:48:41;2.47;;;1.30;;
27670;SDS011;15077;49.704;9.908;2023-07-28T06:51:07;2.47;;;0.95;;
27670;SDS011;15077;49.704;9.908;2023-07-28T06:53:35;1.98;;;1.13;;
27670;SDS011;15077;49.704;9.908;2023-07-28T06:56:01;1.50;;;1.05;;
27670;SDS011;15077;49.704;9.908;2023-07-28T06:58:27;1.63;;;1.05;;
27670;SDS011;15077;49.704;9.908;2023-07-28T07:00:52;1.33;;;1.15;;
27670;SDS011;15077;49.704;9.908;2023-07-28T07:03:20;1.50;;;0.90;;
27670;SDS011;15077;49.704;9.908;2023-07-28T07:05:48;1.52;;;0.77;;
27670;SDS011;15077;49.704;9.908;2023-07-28T07:08:13;2.05;;;0.82;;
27670;SDS011;15077;49.704;9.908;2023-07-28T07:10:39;4.53;;;0.90;;
27670;SDS011;15077;49.704;9.908;2023-07-28T07:13:05;1.50;;;0.82;;
27670;SDS011;15077;49.704;9.908;2023-07-28T07:15:33;1.33;;;0.73;;
27670;SDS011;15077;49.704;9.908;2023-07-28T07:18:00;2.45;;;1.35;;
27670;SDS011;15077;49.704;9.908;2023-07-28T07:20:26;0.90;;;0.75;;
27670;SDS011;15077;49.704;9.908;2023-07-28T07:22:51;1.38;;;0.90;;
27670;SDS011;15077;49.704;9.908;2023-07-28T07:25:17;1.95;;;1.10;;
27670;SDS011;15077;49.704;9.908;2023-07-28T07:27:43;1.10;;;0.60;;
27670;SDS011;15077;49.704;9.908;2023-07-28T07:30:10;2.47;;;0.63;;
27670;SDS011;15077;49.704;9.908;2023-07-28T07:32:36;1.23;;;0.90;;
27670;SDS011;15077;49.704;9.908;2023-07-28T07:35:02;0.90;;;0.60;;
27670;SDS011;15077;49.704;9.908;2023-07-28T07:37:28;0.70;;;0.63;;
27670;SDS011;15077;49.704;9.908;2023-07-28T07:39:56;0.95;;;0.60;;
27670;SDS011;15077;49.704;9.908;2023-07-28T07:42:23;1.17;;;0.80;;
27670;SDS011;15077;49.704;9.908;2023-07-28T07:44:49;0.77;;;0.50;;
27670;SDS011;15077;49.704;9.908;2023-07-28T07:47:15;1.08;;;0.70;;
27670;SDS011;15077;49.704;9.908;2023-07-28T07:49:41;1.05;;;0.70;;
27670;SDS011;15077;49.704;9.908;2023-07-28T07:52:08;1.20;;;0.60;;
27670;SDS011;15077;49.704;9.908;2023-07-28T07:54:36;0.90;;;0.60;;
27670;SDS011;15077;49.704;9.908;2023-07-28T07:57:03;0.65;;;0.45;;
27670;SDS011;15077;49.704;9.908;2023-07-28T07:59:29;0.77;;;0.50;;
27670;SDS011;15077;49.704;9.908;2023-07-28T08:01:57;1.35;;;0.80;;
27670;SDS011;15077;49.704;9.908;2023-07-28T08:04:25;0.80;;;0.63;;
27670;SDS011;15077;49.704;9.908;2023-07-28T08:06:53;1.23;;;0.57;;
27670;SDS011;15077;49.704;9.908;2023-07-28T08:09:19;0.70;;;0.40;;
27670;SDS011;15077;49.704;9.908;2023-07-28T08:11:44;0.85;;;0.40;;
27670;SDS011;15077;49.704;9.908;2023-07-28T08:14:10;1.20;;;0.50;;
27670;SDS011;15077;49.704;9.908;2023-07-28T08:16:36;0.73;;;0.57;;
27670;SDS011;15077;49.704;9.908;2023-07-28T08:19:02;0.80;;;0.70;;
27670;SDS011;15077;49.704;9.908;2023-07-28T08:21:27;0.82;;;0.40;;
27670;SDS011;15077;49.704;9.908;2023-07-28T08:23:53;0.80;;;0.50;;
27670;SDS011;15077;49.704;9.908;2023-07-28T08:26:19;0.80;;;0.52;;
27670;SDS011;15077;49.704;9.908;2023-07-28T08:28:45;1.08;;;0.70;;
27670;SDS011;15077;49.704;9.908;2023-07-28T08:31:11;1.85;;;0.52;;
27670;SDS011;15077;49.704;9.908;2023-07-28T08:33:36;3.22;;;0.50;;
27670;SDS011;15077;49.704;9.908;2023-07-28T08:36:02;1.13;;;0.60;;
27670;SDS011;15077;49.704;9.908;2023-07-28T08:38:28;1.08;;;0.82;;
27670;SDS011;15077;49.704;9.908;2023-07-28T08:40:56;2.33;;;0.88;;
27670;SDS011;15077;49.704;9.908;2023-07-28T08:43:23;1.02;;;0.60;;
27670;SDS011;15077;49.704;9.908;2023-07-28T08:45:49;1.10;;;0.60;;
27670;SDS011;15077;49.704;9.908;2023-07-28T08:48:18;1.25;;;0.70;;
27670;SDS011;15077;49.704;9.908;2023-07-28T08:50:45;0.70;;;0.60;;
27670;SDS011;15077;49.704;9.908;2023-07-28T08:53:11;1.88;;;0.90;;
27670;SDS011;15077;49.704;9.908;2023-07-28T08:55:36;1.02;;;0.70;;
27670;SDS011;15077;49.704;9.908;2023-07-28T09:03:14;0.98;;;0.80;;
27670;SDS011;15077;49.704;9.908;2023-07-28T09:05:42;1.83;;;0.93;;
27670;SDS011;15077;49.704;9.908;2023-07-28T09:08:11;1.30;;;1.10;;
27670;SDS011;15077;49.704;9.908;2023-07-28T09:13:32;2.72;;;1.00;;
27670;SDS011;15077;49.704;9.908;2023-07-28T09:16:18;5.13;;;1.23;;
27670;SDS011;15077;49.704;9.908;2023-07-28T09:18:45;1.30;;;1.13;;
27670;SDS011;15077;49.704;9.908;2023-07-28T09:21:18;1.92;;;1.08;;
27670;SDS011;15077;49.704;9.908;2023-07-28T09:23:47;1.33;;;0.70;;
27670;SDS011;15077;49.704;9.908;2023-07-28T09:26:14;2.38;;;1.00;;
27670;SDS011;15077;49.704;9.908;2023-07-28T09:28:41;1.45;;;1.10;;
27670;SDS011;15077;49.704;9.908;2023-07-28T09:31:07;1.73;;;1.10;;
27670;SDS011;15077;49.704;9.908;2023-07-28T09:33:35;1.38;;;1.00;;
27670;SDS011;15077;49.704;9.908;2023-07-28T09:36:12;1.30;;;1.00;;
27670;SDS011;15077;49.704;9.908;2023-07-28T09:38:42;1.80;;;1.17;;
27670;SDS011;15077;49.704;9.908;2023-07-28T09:41:09;1.70;;;1.40;;
27670;SDS011;15077;49.704;9.908;2023-07-28T09:43:37;2.47;;;1.50;;
27670;SDS011;15077;49.704;9.908;2023-07-28T09:46:05;1.40;;;1.20;;
27670;SDS011;15077;49.704;9.908;2023-07-28T09:48:34;1.55;;;1.25;;
27670;SDS011;15077;49.704;9.908;2023-07-28T09:51:06;2.63;;;1.70;;
27670;SDS011;15077;49.704;9.908;2023-07-28T09:53:49;3.28;;;1.35;;
27670;SDS011;15077;49.704;9.908;2023-07-28T09:56:25;1.52;;;1.23;;
27670;SDS011;15077;49.704;9.908;2023-07-28T09:58:57;1.85;;;1.55;;
27670;SDS011;15077;49.704;9.908;2023-07-28T10:01:26;2.45;;;1.23;;
27670;SDS011;15077;49.704;9.908;2023-07-28T10:03:53;1.83;;;1.40;;
27670;SDS011;15077;49.704;9.908;2023-07-28T10:06:19;1.90;;;1.52;;
27670;SDS011;15077;49.704;9.908;2023-07-28T10:08:48;1.80;;;1.58;;
27670;SDS011;15077;49.704;9.908;2023-07-28T10:11:16;2.45;;;1.90;;
27670;SDS011;15077;49.704;9.908;2023-07-28T10:13:43;2.03;;;1.42;;
27670;SDS011;15077;49.704;9.908;2023-07-28T10:16:11;2.17;;;1.80;;
27670;SDS011;15077;49.704;9.908;2023-07-28T10:18:39;1.92;;;1.08;;
27670;SDS011;15077;49.704;9.908;2023-07-28T10:21:15;2.25;;;0.98;;
27670;SDS011;15077;49.704;9.908;2023-07-28T10:23:42;1.50;;;1.00;;
27670;SDS011;15077;49.704;9.908;2023-07-28T10:26:09;1.38;;;0.90;;
27670;SDS011;15077;49.704;9.908;2023-07-28T10:28:36;2.22;;;1.00;;
27670;SDS011;15077;49.704;9.908;2023-07-28T10:31:06;2.03;;;1.10;;
27670;SDS011;15077;49.704;9.908;2023-07-28T10:33:36;2.63;;;1.73;;
27670;SDS011;15077;49.704;9.908;2023-07-28T10:36:17;1.35;;;0.95;;
27670;SDS011;15077;49.704;9.908;2023-07-28T10:39:23;1.90;;;1.38;;
27670;SDS011;15077;49.704;9.908;2023-07-28T10:42:01;1.92;;;1.05;;
27670;SDS011;15077;49.704;9.908;2023-07-28T10:44:33;1.40;;;1.10;;
27670;SDS011;15077;49.704;9.908;2023-07-28T10:47:00;1.63;;;1.10;;
27670;SDS011;15077;49.704;9.908;2023-07-28T10:49:27;2.85;;;1.10;;
27670;SDS011;15077;49.704;9.908;2023-07-28T10:51:53;1.63;;;1.05;;
27670;SDS011;15077;49.704;9.908;2023-07-28T10:54:19;1.60;;;1.27;;
27670;SDS011;15077;49.704;9.908;2023-07-28T10:56:46;1.25;;;1.00;;
27670;SDS011;15077;49.704;9.908;2023-07-28T10:59:13;1.83;;;0.95;;
27670;SDS011;15077;49.704;9.908;2023-07-28T11:01:40;1.13;;;0.98;;
27670;SDS011;15077;49.704;9.908;2023-07-28T11:06:35;1.10;;;0.98;;
27670;SDS011;15077;49.704;9.908;2023-07-28T11:09:09;1.58;;;1.02;;
27670;SDS011;15077;49.704;9.908;2023-07-28T11:11:39;1.08;;;0.95;;
27670;SDS011;15077;49.704;9.908;2023-07-28T11:14:06;1.27;;;1.10;;
27670;SDS011;15077;49.704;9.908;2023-07-28T11:16:34;0.93;;;0.80;;
27670;SDS011;15077;49.704;9.908;2023-07-28T11:19:03;1.40;;;0.80;;
27670;SDS011;15077;49.704;9.908;2023-07-28T11:21:36;1.02;;;0.93;;
27670;SDS011;15077;49.704;9.908;2023-07-28T11:24:03;1.10;;;0.80;;
27670;SDS011;15077;49.704;9.908;2023-07-28T11:26:29;1.33;;;0.90;;
27670;SDS011;15077;49.704;9.908;2023-07-28T11:28:55;1.83;;;1.08;;
27670;SDS011;15077;49.704;9.908;2023-07-28T11:31:25;2.47;;;1.02;;
27670;SDS011;15077;49.704;9.908;2023-07-28T11:33:51;1.20;;;1.00;;
27670;SDS011;15077;49.704;9.908;2023-07-28T11:36:27;1.15;;;0.90;;
27670;SDS011;15077;49.704;9.908;2023-07-28T11:38:59;1.90;;;1.20;;
27670;SDS011;15077;49.704;9.908;2023-07-28T11:41:25;1.27;;;0.90;;
27670;SDS011;15077;49.704;9.908;2023-07-28T11:43:52;1.60;;;0.93;;
27670;SDS011;15077;49.704;9.908;2023-07-28T11:49:16;1.77;;;1.20;;
27670;SDS011;15077;49.704;9.908;2023-07-28T11:51:47;1.40;;;1.15;;
27670;SDS011;15077;49.704;9.908;2023-07-28T11:54:17;1.25;;;1.10;;
27670;SDS011;15077;49.704;9.908;2023-07-28T11:56:47;1.40;;;1.20;;
27670;SDS011;15077;49.704;9.908;2023-07-28T11:59:15;1.38;;;1.02;;
27670;SDS011;15077;49.704;9.908;2023-07-28T12:12:15;2.00;;;1.10;;
27670;SDS011;15077;49.704;9.908;2023-07-28T12:14:42;1.58;;;1.30;;
27670;SDS011;15077;49.704;9.908;2023-07-28T12:17:15;1.25;;;1.02;;
27670;SDS011;15077;49.704;9.908;2023-07-28T12:19:58;1.00;;;0.80;;
27670;SDS011;15077;49.704;9.908;2023-07-28T12:22:43;1.05;;;0.73;;
27670;SDS011;15077;49.704;9.908;2023-07-28T12:25:11;1.15;;;0.80;;
27670;SDS011;15077;49.704;9.908;2023-07-28T12:27:37;1.17;;;0.80;;
27670;SDS011;15077;49.704;9.908;2023-07-28T12:30:03;1.05;;;0.73;;
27670;SDS011;15077;49.704;9.908;2023-07-28T12:32:32;1.17;;;0.80;;
27670;SDS011;15077;49.704;9.908;2023-07-28T12:34:57;0.88;;;0.75;;
27670;SDS011;15077;49.704;9.908;2023-07-28T12:37:23;1.52;;;0.98;;
27670;SDS011;15077;49.704;9.908;2023-07-28T12:39:49;1.17;;;1.00;;
27670;SDS011;15077;49.704;9.908;2023-07-28T12:42:15;1.85;;;0.90;;
27670;SDS011;15077;49.704;9.908;2023-07-28T12:44:41;1.15;;;0.70;;
27670;SDS011;15077;49.704;9.908;2023-07-28T12:47:07;2.03;;;1.02;;
27670;SDS011;15077;49.704;9.908;2023-07-28T12:49:33;1.23;;;1.00;;
27670;SDS011;15077;49.704;9.908;2023-07-28T12:52:00;1.30;;;0.88;;
27670;SDS011;15077;49.704;9.908;2023-07-28T12:54:29;2.05;;;1.05;;
27670;SDS011;15077;49.704;9.908;2023-07-28T12:56:55;1.02;;;0.82;;
27670;SDS011;15077;49.704;9.908;2023-07-28T12:59:20;1.70;;;0.82;;
27670;SDS011;15077;49.704;9.908;2023-07-28T13:01:46;1.15;;;0.93;;
27670;SDS011;15077;49.704;9.908;2023-07-28T13:04:12;1.52;;;1.17;;
27670;SDS011;15077;49.704;9.908;2023-07-28T13:06:38;1.25;;;1.08;;
27670;SDS011;15077;49.704;9.908;2023-07-28T13:09:06;1.52;;;1.02;;
27670;SDS011;15077;49.704;9.908;2023-07-28T13:11:35;1.00;;;0.73;;
27670;SDS011;15077;49.704;9.908;2023-07-28T13:14:01;4.40;;;0.90;;
27670;SDS011;15077;49.704;9.908;2023-07-28T13:16:27;1.02;;;0.73;;
27670;SDS011;15077;49.704;9.908;2023-07-28T13:18:53;1.15;;;0.80;;
27670;SDS011;15077;49.704;9.908;2023-07-28T13:21:19;2.60;;;0.95;;
27670;SDS011;15077;49.704;9.908;2023-07-28T13:23:44;1.30;;;1.00;;
27670;SDS011;15077;49.704;9.908;2023-07-28T13:26:11;1.85;;;1.23;;
27670;SDS011;15077;49.704;9.908;2023-07-28T13:28:36;1.02;;;0.80;;
27670;SDS011;15077;49.704;9.908;2023-07-28T13:31:02;1.20;;;0.80;;
27670;SDS011;15077;49.704;9.908;2023-07-28T13:33:29;1.02;;;0.63;;
27670;SDS011;15077;49.704;9.908;2023-07-28T13:35:56;0.73;;;0.70;;
27670;SDS011;15077;49.704;9.908;2023-07-28T13:38:21;1.67;;;0.70;;
27670;SDS011;15077;49.704;9.908;2023-07-28T13:40:47;1.23;;;0.85;;
27670;SDS011;15077;49.704;9.908;2023-07-28T13:43:13;1.50;;;1.10;;
27670;SDS011;15077;49.704;9.908;2023-07-28T13:45:39;1.52;;;1.00;;
27670;SDS011;15077;49.704;9.908;2023-07-28T13:48:04;1.10;;;0.73;;
27670;SDS011;15077;49.704;9.908;2023-07-28T13:50:30;0.90;;;0.77;;
27670;SDS011;15077;49.704;9.908;2023-07-28T13:52:56;1.20;;;0.68;;
27670;SDS011;15077;49.704;9.908;2023-07-28T13:55:22;1.45;;;0.85;;
27670;SDS011;15077;49.704;9.908;2023-07-28T13:57:48;1.70;;;0.73;;
27670;SDS011;15077;49.704;9.908;2023-07-28T14:00:14;1.33;;;0.90;;
27670;SDS011;15077;49.704;9.908;2023-07-28T14:02:40;0.80;;;0.63;;
27670;SDS011;15077;49.704;9.908;2023-07-28T14:05:06;0.90;;;0.77;;
27670;SDS011;15077;49.704;9.908;2023-07-28T14:07:33;1.70;;;0.80;;
27670;SDS011;15077;49.704;9.908;2023-07-28T14:09:59;1.45;;;0.80;;
27670;SDS011;15077;49.704;9.908;2023-07-28T14:12:26;0.90;;;0.70;;
27670;SDS011;15077;49.704;9.908;2023-07-28T14:14:52;1.90;;;0.82;;
27670;SDS011;15077;49.704;9.908;2023-07-28T14:17:17;3.40;;;0.90;;
27670;SDS011;15077;49.704;9.908;2023-07-28T14:19:43;1.33;;;0.90;;
27670;SDS011;15077;49.704;9.908;2023-07-28T14:22:09;1.30;;;0.93;;
27670;SDS011;15077;49.704;9.908;2023-07-28T14:24:35;1.05;;;0.90;;
27670;SDS011;15077;49.704;9.908;2023-07-28T14:27:01;1.10;;;0.80;;
27670;SDS011;15077;49.704;9.908;2023-07-28T14:29:26;1.10;;;0.90;;
27670;SDS011;15077;49.704;9.908;2023-07-28T14:31:52;1.80;;;1.00;;
27670;SDS011;15077;49.704;9.908;2023-07-28T14:34:18;1.10;;;0.90;;
27670;SDS011;15077;49.704;9.908;2023-07-28T14:36:44;1.33;;;0.85;;
27670;SDS011;15077;49.704;9.908;2023-07-28T14:39:12;1.23;;;1.08;;
27670;SDS011;15077;49.704;9.908;2023-07-28T14:41:37;1.35;;;1.15;;
27670;SDS011;15077;49.704;9.908;2023-07-28T14:44:03;1.17;;;0.80;;
27670;SDS011;15077;49.704;9.908;2023-07-28T14:46:29;1.40;;;0.90;;
27670;SDS011;15077;49.704;9.908;2023-07-28T14:48:55;1.60;;;1.10;;
27670;SDS011;15077;49.704;9.908;2023-07-28T14:51:21;1.48;;;0.80;;
27670;SDS011;15077;49.704;9.908;2023-07-28T14:53:48;1.88;;;0.90;;
27670;SDS011;15077;49.704;9.908;2023-07-28T14:56:14;1.30;;;0.80;;
27670;SDS011;15077;49.704;9.908;2023-07-28T14:58:42;1.30;;;1.00;;
27670;SDS011;15077;49.704;9.908;2023-07-28T15:01:09;0.75;;;0.60;;
27670;SDS011;15077;49.704;9.908;2023-07-28T15:03:36;1.10;;;0.80;;
27670;SDS011;15077;49.704;9.908;2023-07-28T15:06:02;0.60;;;0.50;;
27670;SDS011;15077;49.704;9.908;2023-07-28T15:08:29;0.98;;;0.50;;
27670;SDS011;15077;49.704;9.908;2023-07-28T15:10:56;0.63;;;0.40;;
27670;SDS011;15077;49.704;9.908;2023-07-28T15:13:23;2.58;;;0.43;;
27670;SDS011;15077;49.704;9.908;2023-07-28T15:15:49;0.77;;;0.50;;
27670;SDS011;15077;49.704;9.908;2023-07-28T15:18:15;1.48;;;0.40;;